sensor_id;sensor_type;location;lat;lon;timestamp;pressure;altitude;pressure_sealevel;temperature
11849;BMP180;5983;49.966;8.052;2023-09-08T00:01:53;100782.00;;;17.60
11849;BMP180;5983;49.966;8.052;2023-09-08T00:04:19;100782.00;;;17.60
11849;BMP180;5983;49.966;8.052;2023-09-08T00:06:48;100779.00;;;17.50
11849;BMP180;5983;49.966;8.052;2023-09-08T00:09:15;100767.00;;;17.50
11849;BMP180;5983;49.966;8.052;2023-09-08T00:11:42;100775.00;;;17.50
11849;BMP180;5983;49.966;8.052;2023-09-08T00:14:09;100765.00;;;17.50
11849;BMP180;5983;49.966;8.052;2023-09-08T00:16:36;100775.00;;;17.40
11849;BMP180;5983;49.966;8.052;2023-09-08T00:19:04;100773.00;;;17.40
11849;BMP180;5983;49.966;8.052;2023-09-08T00:21:31;100774.00;;;17.30
11849;BMP180;5983;49.966;8.052;2023-09-08T00:23:59;100780.00;;;17.30
11849;BMP180;5983;49.966;8.052;2023-09-08T00:26:26;100770.00;;;17.30
11849;BMP180;5983;49.966;8.052;2023-09-08T00:28:53;100780.00;;;17.20
11849;BMP180;5983;49.966;8.052;2023-09-08T00:31:19;100781.00;;;17.20
11849;BMP180;5983;49.966;8.052;2023-09-08T00:33:46;100775.00;;;17.10
11849;BMP180;5983;49.966;8.052;2023-09-08T00:36:13;100778.00;;;17.10
11849;BMP180;5983;49.966;8.052;2023-09-08T00:38:40;100778.00;;;17.10
11849;BMP180;5983;49.966;8.052;2023-09-08T00:41:09;100775.00;;;17.10
11849;BMP180;5983;49.966;8.052;2023-09-08T00:43:35;100771.00;;;17.10
11849;BMP180;5983;49.966;8.052;2023-09-08T00:46:02;100770.00;;;17.10
11849;BMP180;5983;49.966;8.052;2023-09-08T00:48:29;100771.00;;;17.00
11849;BMP180;5983;49.966;8.052;2023-09-08T00:50:56;100769.00;;;16.90
11849;BMP180;5983;49.966;8.052;2023-09-08T00:53:23;100775.00;;;16.80
11849;BMP180;5983;49.966;8.052;2023-09-08T00:55:50;100774.00;;;16.80
11849;BMP180;5983;49.966;8.052;2023-09-08T00:58:19;100769.00;;;16.80
11849;BMP180;5983;49.966;8.052;2023-09-08T01:00:46;100768.00;;;16.80
11849;BMP180;5983;49.966;8.052;2023-09-08T01:03:12;100774.00;;;16.70
11849;BMP180;5983;49.966;8.052;2023-09-08T01:05:39;100773.00;;;16.70
11849;BMP180;5983;49.966;8.052;2023-09-08T01:08:06;100767.00;;;16.70
11849;BMP180;5983;49.966;8.052;2023-09-08T01:10:34;100777.00;;;16.70
11849;BMP180;5983;49.966;8.052;2023-09-08T01:13:02;100783.00;;;16.70
11849;BMP180;5983;49.966;8.052;2023-09-08T01:15:31;100796.00;;;16.70
11849;BMP180;5983;49.966;8.052;2023-09-08T01:17:57;100780.00;;;16.70
11849;BMP180;5983;49.966;8.052;2023-09-08T01:20:28;100771.00;;;16.70
11849;BMP180;5983;49.966;8.052;2023-09-08T01:23:06;100774.00;;;16.60
11849;BMP180;5983;49.966;8.052;2023-09-08T01:25:40;100771.00;;;16.60
11849;BMP180;5983;49.966;8.052;2023-09-08T01:28:09;100775.00;;;16.50
11849;BMP180;5983;49.966;8.052;2023-09-08T01:30:37;100776.00;;;16.50
11849;BMP180;5983;49.966;8.052;2023-09-08T01:33:04;100773.00;;;16.50
11849;BMP180;5983;49.966;8.052;2023-09-08T01:35:31;100773.00;;;16.50
11849;BMP180;5983;49.966;8.052;2023-09-08T01:37:58;100780.00;;;16.50
11849;BMP180;5983;49.966;8.052;2023-09-08T01:40:25;100773.00;;;16.40
11849;BMP180;5983;49.966;8.052;2023-09-08T01:42:53;100771.00;;;16.40
11849;BMP180;5983;49.966;8.052;2023-09-08T01:45:20;100772.00;;;16.30
11849;BMP180;5983;49.966;8.052;2023-09-08T01:47:46;100775.00;;;16.30
11849;BMP180;5983;49.966;8.052;2023-09-08T01:50:13;100768.00;;;16.20
11849;BMP180;5983;49.966;8.052;2023-09-08T01:52:46;100770.00;;;16.20
11849;BMP180;5983;49.966;8.052;2023-09-08T01:55:13;100776.00;;;16.20
11849;BMP180;5983;49.966;8.052;2023-09-08T01:57:41;100768.00;;;16.10
11849;BMP180;5983;49.966;8.052;2023-09-08T02:00:11;100766.00;;;16.10
11849;BMP180;5983;49.966;8.052;2023-09-08T02:02:38;100762.00;;;16.10
11849;BMP180;5983;49.966;8.052;2023-09-08T02:05:06;100769.00;;;16.10
11849;BMP180;5983;49.966;8.052;2023-09-08T02:07:33;100769.00;;;16.10
11849;BMP180;5983;49.966;8.052;2023-09-08T02:10:00;100765.00;;;16.10
11849;BMP180;5983;49.966;8.052;2023-09-08T02:12:27;100773.00;;;16.10
11849;BMP180;5983;49.966;8.052;2023-09-08T02:14:54;100774.00;;;16.10
11849;BMP180;5983;49.966;8.052;2023-09-08T02:17:22;100773.00;;;16.10
11849;BMP180;5983;49.966;8.052;2023-09-08T02:19:49;100771.00;;;16.00
11849;BMP180;5983;49.966;8.052;2023-09-08T02:22:17;100771.00;;;16.00
11849;BMP180;5983;49.966;8.052;2023-09-08T02:24:43;100765.00;;;16.00
11849;BMP180;5983;49.966;8.052;2023-09-08T02:27:10;100766.00;;;16.00
11849;BMP180;5983;49.966;8.052;2023-09-08T02:29:37;100766.00;;;16.00
11849;BMP180;5983;49.966;8.052;2023-09-08T02:32:04;100764.00;;;15.90
11849;BMP180;5983;49.966;8.052;2023-09-08T02:34:35;100772.00;;;15.80
11849;BMP180;5983;49.966;8.052;2023-09-08T02:37:03;100765.00;;;15.80
11849;BMP180;5983;49.966;8.052;2023-09-08T02:39:32;100764.00;;;15.70
11849;BMP180;5983;49.966;8.052;2023-09-08T02:41:59;100765.00;;;15.70
11849;BMP180;5983;49.966;8.052;2023-09-08T02:44:26;100773.00;;;15.80
11849;BMP180;5983;49.966;8.052;2023-09-08T02:46:54;100769.00;;;15.80
11849;BMP180;5983;49.966;8.052;2023-09-08T02:49:22;100768.00;;;15.80
11849;BMP180;5983;49.966;8.052;2023-09-08T02:51:50;100776.00;;;15.70
11849;BMP180;5983;49.966;8.052;2023-09-08T02:54:17;100772.00;;;15.70
11849;BMP180;5983;49.966;8.052;2023-09-08T02:56:44;100779.00;;;15.60
11849;BMP180;5983;49.966;8.052;2023-09-08T02:59:11;100778.00;;;15.50
11849;BMP180;5983;49.966;8.052;2023-09-08T03:01:38;100772.00;;;15.50
11849;BMP180;5983;49.966;8.052;2023-09-08T03:04:05;100771.00;;;15.50
11849;BMP180;5983;49.966;8.052;2023-09-08T03:06:32;100775.00;;;15.50
11849;BMP180;5983;49.966;8.052;2023-09-08T03:09:02;100772.00;;;15.50
11849;BMP180;5983;49.966;8.052;2023-09-08T03:11:29;100770.00;;;15.50
11849;BMP180;5983;49.966;8.052;2023-09-08T03:13:56;100772.00;;;15.50
11849;BMP180;5983;49.966;8.052;2023-09-08T03:16:23;100773.00;;;15.50
11849;BMP180;5983;49.966;8.052;2023-09-08T03:18:49;100781.00;;;15.40
11849;BMP180;5983;49.966;8.052;2023-09-08T03:21:16;100778.00;;;15.40
11849;BMP180;5983;49.966;8.052;2023-09-08T03:23:44;100772.00;;;15.30
11849;BMP180;5983;49.966;8.052;2023-09-08T03:26:13;100774.00;;;15.30
11849;BMP180;5983;49.966;8.052;2023-09-08T03:28:42;100772.00;;;15.30
11849;BMP180;5983;49.966;8.052;2023-09-08T03:31:09;100755.00;;;15.30
11849;BMP180;5983;49.966;8.052;2023-09-08T03:33:36;100768.00;;;15.30
11849;BMP180;5983;49.966;8.052;2023-09-08T03:36:03;100761.00;;;15.20
11849;BMP180;5983;49.966;8.052;2023-09-08T03:38:31;100766.00;;;15.20
11849;BMP180;5983;49.966;8.052;2023-09-08T03:40:58;100761.00;;;15.20
11849;BMP180;5983;49.966;8.052;2023-09-08T03:43:26;100755.00;;;15.20
11849;BMP180;5983;49.966;8.052;2023-09-08T03:45:53;100760.00;;;15.20
11849;BMP180;5983;49.966;8.052;2023-09-08T03:48:20;100759.00;;;15.20
11849;BMP180;5983;49.966;8.052;2023-09-08T03:50:46;100756.00;;;15.20
11849;BMP180;5983;49.966;8.052;2023-09-08T03:53:13;100755.00;;;15.20
11849;BMP180;5983;49.966;8.052;2023-09-08T03:55:41;100752.00;;;15.10
11849;BMP180;5983;49.966;8.052;2023-09-08T03:58:08;100757.00;;;15.10
11849;BMP180;5983;49.966;8.052;2023-09-08T04:00:37;100771.00;;;15.10
11849;BMP180;5983;49.966;8.052;2023-09-08T04:03:04;100763.00;;;15.00
11849;BMP180;5983;49.966;8.052;2023-09-08T04:05:31;100767.00;;;15.00
11849;BMP180;5983;49.966;8.052;2023-09-08T04:07:57;100768.00;;;15.00
11849;BMP180;5983;49.966;8.052;2023-09-08T04:10:24;100763.00;;;15.00
11849;BMP180;5983;49.966;8.052;2023-09-08T04:12:51;100774.00;;;15.00
11849;BMP180;5983;49.966;8.052;2023-09-08T04:15:18;100777.00;;;15.00
11849;BMP180;5983;49.966;8.052;2023-09-08T04:17:47;100777.00;;;14.90
11849;BMP180;5983;49.966;8.052;2023-09-08T04:20:14;100769.00;;;14.90
11849;BMP180;5983;49.966;8.052;2023-09-08T04:22:42;100768.00;;;14.80
11849;BMP180;5983;49.966;8.052;2023-09-08T04:25:09;100770.00;;;14.90
11849;BMP180;5983;49.966;8.052;2023-09-08T04:27:36;100774.00;;;14.80
11849;BMP180;5983;49.966;8.052;2023-09-08T04:30:04;100782.00;;;14.80
11849;BMP180;5983;49.966;8.052;2023-09-08T04:32:31;100777.00;;;14.80
11849;BMP180;5983;49.966;8.052;2023-09-08T04:35:01;100776.00;;;14.90
11849;BMP180;5983;49.966;8.052;2023-09-08T04:37:28;100777.00;;;14.80
11849;BMP180;5983;49.966;8.052;2023-09-08T04:39:56;100771.00;;;14.70
11849;BMP180;5983;49.966;8.052;2023-09-08T04:42:25;100772.00;;;14.70
11849;BMP180;5983;49.966;8.052;2023-09-08T04:44:54;100775.00;;;14.70
11849;BMP180;5983;49.966;8.052;2023-09-08T04:47:21;100779.00;;;14.70
11849;BMP180;5983;49.966;8.052;2023-09-08T04:49:48;100777.00;;;14.70
11849;BMP180;5983;49.966;8.052;2023-09-08T04:52:16;100782.00;;;14.70
11849;BMP180;5983;49.966;8.052;2023-09-08T04:54:44;100777.00;;;14.70
11849;BMP180;5983;49.966;8.052;2023-09-08T04:57:11;100783.00;;;14.60
11849;BMP180;5983;49.966;8.052;2023-09-08T04:59:40;100777.00;;;14.60
11849;BMP180;5983;49.966;8.052;2023-09-08T05:02:06;100785.00;;;14.60
11849;BMP180;5983;49.966;8.052;2023-09-08T05:04:33;100788.00;;;14.60
11849;BMP180;5983;49.966;8.052;2023-09-08T05:07:00;100794.00;;;14.60
11849;BMP180;5983;49.966;8.052;2023-09-08T05:09:28;100790.00;;;14.60
11849;BMP180;5983;49.966;8.052;2023-09-08T05:11:55;100794.00;;;14.60
11849;BMP180;5983;49.966;8.052;2023-09-08T05:14:22;100786.00;;;14.60
11849;BMP180;5983;49.966;8.052;2023-09-08T05:16:50;100785.00;;;14.60
11849;BMP180;5983;49.966;8.052;2023-09-08T05:19:21;100782.00;;;14.70
11849;BMP180;5983;49.966;8.052;2023-09-08T05:21:50;100791.00;;;14.70
11849;BMP180;5983;49.966;8.052;2023-09-08T05:24:17;100798.00;;;14.70
11849;BMP180;5983;49.966;8.052;2023-09-08T05:26:45;100796.00;;;14.80
11849;BMP180;5983;49.966;8.052;2023-09-08T05:29:12;100796.00;;;14.80
11849;BMP180;5983;49.966;8.052;2023-09-08T05:31:39;100796.00;;;14.90
11849;BMP180;5983;49.966;8.052;2023-09-08T05:34:06;100801.00;;;15.00
11849;BMP180;5983;49.966;8.052;2023-09-08T05:36:32;100797.00;;;15.10
11849;BMP180;5983;49.966;8.052;2023-09-08T05:39:01;100797.00;;;15.30
11849;BMP180;5983;49.966;8.052;2023-09-08T05:41:28;100802.00;;;15.40
11849;BMP180;5983;49.966;8.052;2023-09-08T05:43:56;100802.00;;;15.50
11849;BMP180;5983;49.966;8.052;2023-09-08T05:46:23;100806.00;;;15.60
11849;BMP180;5983;49.966;8.052;2023-09-08T05:48:50;100812.00;;;15.80
11849;BMP180;5983;49.966;8.052;2023-09-08T05:51:16;100805.00;;;15.90
11849;BMP180;5983;49.966;8.052;2023-09-08T05:53:43;100811.00;;;16.00
11849;BMP180;5983;49.966;8.052;2023-09-08T05:56:10;100815.00;;;16.10
11849;BMP180;5983;49.966;8.052;2023-09-08T05:58:37;100819.00;;;16.30
11849;BMP180;5983;49.966;8.052;2023-09-08T06:01:05;100815.00;;;16.40
11849;BMP180;5983;49.966;8.052;2023-09-08T06:03:32;100815.00;;;16.60
11849;BMP180;5983;49.966;8.052;2023-09-08T06:05:59;100817.00;;;16.70
11849;BMP180;5983;49.966;8.052;2023-09-08T06:08:26;100825.00;;;16.80
11849;BMP180;5983;49.966;8.052;2023-09-08T06:10:53;100816.00;;;16.90
11849;BMP180;5983;49.966;8.052;2023-09-08T06:13:20;100819.00;;;17.10
11849;BMP180;5983;49.966;8.052;2023-09-08T06:15:47;100820.00;;;17.20
11849;BMP180;5983;49.966;8.052;2023-09-08T06:18:15;100835.00;;;17.40
11849;BMP180;5983;49.966;8.052;2023-09-08T06:20:45;100824.00;;;17.70
11849;BMP180;5983;49.966;8.052;2023-09-08T06:23:13;100828.00;;;18.40
11849;BMP180;5983;49.966;8.052;2023-09-08T06:25:40;100827.00;;;19.40
11849;BMP180;5983;49.966;8.052;2023-09-08T06:28:15;100832.00;;;20.10
11849;BMP180;5983;49.966;8.052;2023-09-08T06:30:44;100831.00;;;20.60
11849;BMP180;5983;49.966;8.052;2023-09-08T06:33:11;100829.00;;;21.00
11849;BMP180;5983;49.966;8.052;2023-09-08T06:35:41;100831.00;;;21.30
11849;BMP180;5983;49.966;8.052;2023-09-08T06:38:07;100833.00;;;21.90
11849;BMP180;5983;49.966;8.052;2023-09-08T06:40:45;100835.00;;;22.80
11849;BMP180;5983;49.966;8.052;2023-09-08T06:43:13;100827.00;;;23.70
11849;BMP180;5983;49.966;8.052;2023-09-08T06:45:40;100838.00;;;24.60
11849;BMP180;5983;49.966;8.052;2023-09-08T06:48:07;100839.00;;;24.90
11849;BMP180;5983;49.966;8.052;2023-09-08T06:50:35;100829.00;;;24.60
11849;BMP180;5983;49.966;8.052;2023-09-08T06:53:05;100824.00;;;24.20
11849;BMP180;5983;49.966;8.052;2023-09-08T06:55:32;100830.00;;;24.00
11849;BMP180;5983;49.966;8.052;2023-09-08T06:57:59;100823.00;;;24.30
11849;BMP180;5983;49.966;8.052;2023-09-08T07:00:28;100830.00;;;24.80
11849;BMP180;5983;49.966;8.052;2023-09-08T07:02:58;100833.00;;;25.20
11849;BMP180;5983;49.966;8.052;2023-09-08T07:05:25;100831.00;;;25.50
11849;BMP180;5983;49.966;8.052;2023-09-08T07:07:51;100831.00;;;25.70
11849;BMP180;5983;49.966;8.052;2023-09-08T07:10:20;100835.00;;;26.00
11849;BMP180;5983;49.966;8.052;2023-09-08T07:12:47;100836.00;;;26.20
11849;BMP180;5983;49.966;8.052;2023-09-08T07:15:14;100839.00;;;26.40
11849;BMP180;5983;49.966;8.052;2023-09-08T07:17:41;100845.00;;;26.50
11849;BMP180;5983;49.966;8.052;2023-09-08T07:20:09;100838.00;;;26.70
11849;BMP180;5983;49.966;8.052;2023-09-08T07:22:37;100856.00;;;26.90
11849;BMP180;5983;49.966;8.052;2023-09-08T07:25:05;100852.00;;;27.10
11849;BMP180;5983;49.966;8.052;2023-09-08T07:27:33;100859.00;;;27.20
11849;BMP180;5983;49.966;8.052;2023-09-08T07:30:00;100850.00;;;27.20
11849;BMP180;5983;49.966;8.052;2023-09-08T07:32:27;100851.00;;;27.30
11849;BMP180;5983;49.966;8.052;2023-09-08T07:34:54;100861.00;;;27.50
11849;BMP180;5983;49.966;8.052;2023-09-08T07:37:21;100858.00;;;27.60
11849;BMP180;5983;49.966;8.052;2023-09-08T07:39:48;100858.00;;;27.60
11849;BMP180;5983;49.966;8.052;2023-09-08T07:42:15;100860.00;;;27.80
11849;BMP180;5983;49.966;8.052;2023-09-08T07:44:45;100853.00;;;27.90
11849;BMP180;5983;49.966;8.052;2023-09-08T07:47:12;100856.00;;;28.00
11849;BMP180;5983;49.966;8.052;2023-09-08T07:49:38;100862.00;;;28.00
11849;BMP180;5983;49.966;8.052;2023-09-08T07:52:05;100862.00;;;28.10
11849;BMP180;5983;49.966;8.052;2023-09-08T07:54:32;100858.00;;;28.10
11849;BMP180;5983;49.966;8.052;2023-09-08T07:56:59;100859.00;;;28.10
11849;BMP180;5983;49.966;8.052;2023-09-08T07:59:26;100853.00;;;28.30
11849;BMP180;5983;49.966;8.052;2023-09-08T08:01:54;100845.00;;;28.50
11849;BMP180;5983;49.966;8.052;2023-09-08T08:04:21;100844.00;;;28.50
11849;BMP180;5983;49.966;8.052;2023-09-08T08:06:48;100852.00;;;28.60
11849;BMP180;5983;49.966;8.052;2023-09-08T08:09:14;100850.00;;;28.60
11849;BMP180;5983;49.966;8.052;2023-09-08T08:11:41;100853.00;;;28.80
11849;BMP180;5983;49.966;8.052;2023-09-08T08:14:08;100850.00;;;28.90
11849;BMP180;5983;49.966;8.052;2023-09-08T08:16:35;100849.00;;;28.90
11849;BMP180;5983;49.966;8.052;2023-09-08T08:19:03;100856.00;;;29.00
11849;BMP180;5983;49.966;8.052;2023-09-08T08:21:30;100858.00;;;28.90
11849;BMP180;5983;49.966;8.052;2023-09-08T08:23:57;100858.00;;;29.00
11849;BMP180;5983;49.966;8.052;2023-09-08T08:26:23;100855.00;;;29.10
11849;BMP180;5983;49.966;8.052;2023-09-08T08:28:53;100858.00;;;29.10
11849;BMP180;5983;49.966;8.052;2023-09-08T08:31:20;100859.00;;;29.20
11849;BMP180;5983;49.966;8.052;2023-09-08T08:33:47;100859.00;;;29.30
11849;BMP180;5983;49.966;8.052;2023-09-08T08:36:15;100860.00;;;29.30
11849;BMP180;5983;49.966;8.052;2023-09-08T08:38:42;100853.00;;;29.40
11849;BMP180;5983;49.966;8.052;2023-09-08T08:41:08;100853.00;;;29.40
11849;BMP180;5983;49.966;8.052;2023-09-08T08:43:35;100851.00;;;29.50
11849;BMP180;5983;49.966;8.052;2023-09-08T08:46:04;100854.00;;;29.70
11849;BMP180;5983;49.966;8.052;2023-09-08T08:48:31;100847.00;;;29.80
11849;BMP180;5983;49.966;8.052;2023-09-08T08:50:59;100853.00;;;29.90
11849;BMP180;5983;49.966;8.052;2023-09-08T08:53:28;100853.00;;;30.00
11849;BMP180;5983;49.966;8.052;2023-09-08T08:55:56;100850.00;;;30.00
11849;BMP180;5983;49.966;8.052;2023-09-08T08:58:27;100853.00;;;30.10
11849;BMP180;5983;49.966;8.052;2023-09-08T09:00:55;100854.00;;;30.10
11849;BMP180;5983;49.966;8.052;2023-09-08T09:03:25;100843.00;;;30.00
11849;BMP180;5983;49.966;8.052;2023-09-08T09:05:53;100836.00;;;30.00
11849;BMP180;5983;49.966;8.052;2023-09-08T09:08:20;100847.00;;;30.20
11849;BMP180;5983;49.966;8.052;2023-09-08T09:10:50;100836.00;;;30.20
11849;BMP180;5983;49.966;8.052;2023-09-08T09:13:17;100848.00;;;30.20
11849;BMP180;5983;49.966;8.052;2023-09-08T09:15:43;100852.00;;;30.30
11849;BMP180;5983;49.966;8.052;2023-09-08T09:18:10;100854.00;;;30.40
11849;BMP180;5983;49.966;8.052;2023-09-08T09:20:37;100853.00;;;30.40
11849;BMP180;5983;49.966;8.052;2023-09-08T09:23:06;100844.00;;;30.50
11849;BMP180;5983;49.966;8.052;2023-09-08T09:25:33;100854.00;;;30.70
11849;BMP180;5983;49.966;8.052;2023-09-08T09:28:03;100847.00;;;30.90
11849;BMP180;5983;49.966;8.052;2023-09-08T09:30:46;100856.00;;;31.00
11849;BMP180;5983;49.966;8.052;2023-09-08T09:33:13;100844.00;;;31.00
11849;BMP180;5983;49.966;8.052;2023-09-08T09:35:41;100846.00;;;31.10
11849;BMP180;5983;49.966;8.052;2023-09-08T09:38:08;100857.00;;;31.20
11849;BMP180;5983;49.966;8.052;2023-09-08T09:40:36;100844.00;;;31.30
11849;BMP180;5983;49.966;8.052;2023-09-08T09:43:05;100844.00;;;31.30
11849;BMP180;5983;49.966;8.052;2023-09-08T09:45:33;100846.00;;;31.30
11849;BMP180;5983;49.966;8.052;2023-09-08T09:48:00;100846.00;;;31.40
11849;BMP180;5983;49.966;8.052;2023-09-08T09:50:29;100832.00;;;31.40
11849;BMP180;5983;49.966;8.052;2023-09-08T09:52:57;100844.00;;;31.30
11849;BMP180;5983;49.966;8.052;2023-09-08T09:55:26;100838.00;;;31.40
11849;BMP180;5983;49.966;8.052;2023-09-08T09:57:56;100838.00;;;31.60
11849;BMP180;5983;49.966;8.052;2023-09-08T10:00:25;100833.00;;;31.60
11849;BMP180;5983;49.966;8.052;2023-09-08T10:02:53;100832.00;;;31.70
11849;BMP180;5983;49.966;8.052;2023-09-08T10:05:20;100833.00;;;31.80
11849;BMP180;5983;49.966;8.052;2023-09-08T10:07:47;100822.00;;;31.80
11849;BMP180;5983;49.966;8.052;2023-09-08T10:10:15;100833.00;;;31.90
11849;BMP180;5983;49.966;8.052;2023-09-08T10:12:43;100821.00;;;31.80
11849;BMP180;5983;49.966;8.052;2023-09-08T10:15:11;100824.00;;;31.90
11849;BMP180;5983;49.966;8.052;2023-09-08T10:17:40;100822.00;;;32.10
11849;BMP180;5983;49.966;8.052;2023-09-08T10:20:09;100819.00;;;32.00
11849;BMP180;5983;49.966;8.052;2023-09-08T10:22:40;100820.00;;;32.00
11849;BMP180;5983;49.966;8.052;2023-09-08T10:25:08;100816.00;;;32.10
11849;BMP180;5983;49.966;8.052;2023-09-08T10:27:36;100821.00;;;32.10
11849;BMP180;5983;49.966;8.052;2023-09-08T10:30:04;100815.00;;;32.10
11849;BMP180;5983;49.966;8.052;2023-09-08T10:32:32;100810.00;;;32.20
11849;BMP180;5983;49.966;8.052;2023-09-08T10:35:02;100803.00;;;32.10
11849;BMP180;5983;49.966;8.052;2023-09-08T10:37:30;100807.00;;;32.20
11849;BMP180;5983;49.966;8.052;2023-09-08T10:40:20;100803.00;;;32.30
11849;BMP180;5983;49.966;8.052;2023-09-08T10:42:47;100802.00;;;32.10
11849;BMP180;5983;49.966;8.052;2023-09-08T10:45:16;100811.00;;;31.80
11849;BMP180;5983;49.966;8.052;2023-09-08T10:47:56;100804.00;;;32.00
11849;BMP180;5983;49.966;8.052;2023-09-08T10:50:31;100799.00;;;31.90
11849;BMP180;5983;49.966;8.052;2023-09-08T10:53:06;100797.00;;;31.90
11849;BMP180;5983;49.966;8.052;2023-09-08T10:55:37;100796.00;;;32.10
11849;BMP180;5983;49.966;8.052;2023-09-08T10:58:06;100797.00;;;32.30
11849;BMP180;5983;49.966;8.052;2023-09-08T11:00:44;100797.00;;;32.10
11849;BMP180;5983;49.966;8.052;2023-09-08T11:03:12;100797.00;;;32.20
11849;BMP180;5983;49.966;8.052;2023-09-08T11:05:41;100797.00;;;32.30
11849;BMP180;5983;49.966;8.052;2023-09-08T11:08:08;100798.00;;;32.30
11849;BMP180;5983;49.966;8.052;2023-09-08T11:10:36;100792.00;;;32.50
11849;BMP180;5983;49.966;8.052;2023-09-08T11:13:06;100789.00;;;32.80
11849;BMP180;5983;49.966;8.052;2023-09-08T11:15:33;100791.00;;;32.90
11849;BMP180;5983;49.966;8.052;2023-09-08T11:18:05;100790.00;;;32.70
11849;BMP180;5983;49.966;8.052;2023-09-08T11:20:32;100788.00;;;32.50
11849;BMP180;5983;49.966;8.052;2023-09-08T11:23:00;100790.00;;;32.70
11849;BMP180;5983;49.966;8.052;2023-09-08T11:25:28;100785.00;;;32.90
11849;BMP180;5983;49.966;8.052;2023-09-08T11:27:55;100789.00;;;33.00
11849;BMP180;5983;49.966;8.052;2023-09-08T11:30:22;100791.00;;;33.10
11849;BMP180;5983;49.966;8.052;2023-09-08T11:32:49;100786.00;;;33.20
11849;BMP180;5983;49.966;8.052;2023-09-08T11:35:16;100777.00;;;33.20
11849;BMP180;5983;49.966;8.052;2023-09-08T11:37:46;100785.00;;;33.20
11849;BMP180;5983;49.966;8.052;2023-09-08T11:40:16;100783.00;;;33.40
11849;BMP180;5983;49.966;8.052;2023-09-08T11:42:45;100787.00;;;33.40
11849;BMP180;5983;49.966;8.052;2023-09-08T11:45:12;100779.00;;;33.40
11849;BMP180;5983;49.966;8.052;2023-09-08T11:47:41;100781.00;;;33.40
11849;BMP180;5983;49.966;8.052;2023-09-08T11:50:09;100786.00;;;33.30
11849;BMP180;5983;49.966;8.052;2023-09-08T11:52:37;100784.00;;;33.10
11849;BMP180;5983;49.966;8.052;2023-09-08T11:55:05;100775.00;;;32.90
11849;BMP180;5983;49.966;8.052;2023-09-08T11:57:33;100776.00;;;33.00
11849;BMP180;5983;49.966;8.052;2023-09-08T12:00:01;100783.00;;;32.90
11849;BMP180;5983;49.966;8.052;2023-09-08T12:02:34;100785.00;;;32.70
11849;BMP180;5983;49.966;8.052;2023-09-08T12:05:01;100769.00;;;32.90
11849;BMP180;5983;49.966;8.052;2023-09-08T12:07:28;100765.00;;;33.10
11849;BMP180;5983;49.966;8.052;2023-09-08T12:09:54;100770.00;;;33.20
11849;BMP180;5983;49.966;8.052;2023-09-08T12:12:21;100765.00;;;33.20
11849;BMP180;5983;49.966;8.052;2023-09-08T12:14:50;100765.00;;;33.10
11849;BMP180;5983;49.966;8.052;2023-09-08T12:17:17;100766.00;;;33.10
11849;BMP180;5983;49.966;8.052;2023-09-08T12:19:43;100773.00;;;33.00
11849;BMP180;5983;49.966;8.052;2023-09-08T12:22:10;100769.00;;;33.00
11849;BMP180;5983;49.966;8.052;2023-09-08T12:24:50;100756.00;;;33.00
11849;BMP180;5983;49.966;8.052;2023-09-08T12:27:17;100758.00;;;33.10
11849;BMP180;5983;49.966;8.052;2023-09-08T12:29:56;100758.00;;;33.10
11849;BMP180;5983;49.966;8.052;2023-09-08T12:32:24;100761.00;;;33.30
11849;BMP180;5983;49.966;8.052;2023-09-08T12:34:51;100762.00;;;33.40
11849;BMP180;5983;49.966;8.052;2023-09-08T12:37:21;100755.00;;;33.50
11849;BMP180;5983;49.966;8.052;2023-09-08T12:39:48;100760.00;;;33.50
11849;BMP180;5983;49.966;8.052;2023-09-08T12:42:15;100759.00;;;33.50
11849;BMP180;5983;49.966;8.052;2023-09-08T12:44:42;100766.00;;;33.40
11849;BMP180;5983;49.966;8.052;2023-09-08T12:47:11;100750.00;;;33.40
11849;BMP180;5983;49.966;8.052;2023-09-08T12:49:39;100757.00;;;33.30
11849;BMP180;5983;49.966;8.052;2023-09-08T12:52:06;100759.00;;;33.10
11849;BMP180;5983;49.966;8.052;2023-09-08T12:54:33;100750.00;;;33.10
11849;BMP180;5983;49.966;8.052;2023-09-08T12:56:59;100753.00;;;33.30
11849;BMP180;5983;49.966;8.052;2023-09-08T12:59:26;100755.00;;;33.40
11849;BMP180;5983;49.966;8.052;2023-09-08T13:01:53;100745.00;;;33.60
11849;BMP180;5983;49.966;8.052;2023-09-08T13:04:21;100743.00;;;33.50
11849;BMP180;5983;49.966;8.052;2023-09-08T13:06:48;100746.00;;;33.40
11849;BMP180;5983;49.966;8.052;2023-09-08T13:09:15;100744.00;;;33.50
11849;BMP180;5983;49.966;8.052;2023-09-08T13:11:43;100737.00;;;33.60
11849;BMP180;5983;49.966;8.052;2023-09-08T13:14:09;100748.00;;;33.60
11849;BMP180;5983;49.966;8.052;2023-09-08T13:16:36;100737.00;;;33.40
11849;BMP180;5983;49.966;8.052;2023-09-08T13:19:03;100734.00;;;33.20
11849;BMP180;5983;49.966;8.052;2023-09-08T13:21:31;100740.00;;;33.10
11849;BMP180;5983;49.966;8.052;2023-09-08T13:23:58;100732.00;;;32.90
11849;BMP180;5983;49.966;8.052;2023-09-08T13:26:24;100728.00;;;33.00
11849;BMP180;5983;49.966;8.052;2023-09-08T13:28:51;100718.00;;;33.00
11849;BMP180;5983;49.966;8.052;2023-09-08T13:31:18;100722.00;;;33.10
11849;BMP180;5983;49.966;8.052;2023-09-08T13:33:45;100723.00;;;33.20
11849;BMP180;5983;49.966;8.052;2023-09-08T13:36:12;100712.00;;;33.10
11849;BMP180;5983;49.966;8.052;2023-09-08T13:38:40;100706.00;;;33.10
11849;BMP180;5983;49.966;8.052;2023-09-08T13:41:07;100713.00;;;33.10
11849;BMP180;5983;49.966;8.052;2023-09-08T13:43:33;100709.00;;;33.20
11849;BMP180;5983;49.966;8.052;2023-09-08T13:46:00;100714.00;;;33.10
11849;BMP180;5983;49.966;8.052;2023-09-08T13:48:27;100711.00;;;33.00
11849;BMP180;5983;49.966;8.052;2023-09-08T13:50:53;100702.00;;;32.90
11849;BMP180;5983;49.966;8.052;2023-09-08T13:53:21;100713.00;;;32.80
11849;BMP180;5983;49.966;8.052;2023-09-08T13:55:49;100704.00;;;32.80
11849;BMP180;5983;49.966;8.052;2023-09-08T13:58:16;100702.00;;;32.90
11849;BMP180;5983;49.966;8.052;2023-09-08T14:00:43;100704.00;;;32.80
11849;BMP180;5983;49.966;8.052;2023-09-08T14:03:10;100700.00;;;32.80
11849;BMP180;5983;49.966;8.052;2023-09-08T14:05:37;100701.00;;;32.70
11849;BMP180;5983;49.966;8.052;2023-09-08T14:08:04;100703.00;;;32.50
11849;BMP180;5983;49.966;8.052;2023-09-08T14:10:33;100701.00;;;32.30
11849;BMP180;5983;49.966;8.052;2023-09-08T14:13:06;100696.00;;;32.10